Raymond, WA

2:46 PM PST on December 19, 2014 (GMT -0800)
Riverdale | Change Station
CLOSE
Current Station
Personal Weather Station
Location: Raymond, WA
Elevation: 20 ft
Nearby Weather Stations

Elev 20 ft 46.69 °N, 123.74 °W | Updated 12 minutes ago

Mostly Cloudy
Mostly Cloudy
49.6 °F
Feels Like 50 °F
N
1.1
Wind Variable Wind from ESE

Today
High -- | Low -- °F
--% Chance of Precip.
Yesterday
High -- | Low -- °F
Precip. -- in
7:55 AM 4:28 PM
Waning Crescent, 6% visible
Pressure 29.93 in
Visibility 8.0 miles
Clouds Few 2300 ft
Scattered Clouds 4800 ft
Mostly Cloudy 11000 ft
Windchill 50 °F
Dew Point 46 °F
Humidity 86%
Rainfall 0.27 in
Snow Depth Not available.
UV 1 out of 12
Pollen .50 out of 12
Air Quality Not available.
Flu Activity Not available.
METAR KHQM 192153Z AUTO 15015KT 8SM FEW023 SCT048 BKN110 10/07 A2991 RMK AO2 RAB14E49 SLP133 P0000 T01000072

More Conditions Fewer Conditions

Pressure 29.93 in
Visibility 8.0 miles
Clouds Few 2300 ft
Scattered Clouds 4800 ft
Mostly Cloudy 11000 ft
Windchill 50 °F
Dew Point 46 °F
Humidity 86%
Rainfall 0.27 in
Snow Depth Not available.
UV 1 out of 12
Pollen .50 out of 12
Air Quality Not available.
Flu Activity Not available.
METAR KHQM 192153Z AUTO 15015KT 8SM FEW023 SCT048 BKN110 10/07 A2991 RMK AO2 RAB14E49 SLP133 P0000 T01000072

More Conditions Fewer Conditions

10-Day Weather Forecast

Almanac

Astronomy

Dec. 19, 2014 Rise Set
Actual Time
Civil Twilight
Nautical Twilight
Astronomical Twilight
Moon
Length of Visible Light
Length of Day
Tomorrow will be .
, % of the Moon is Illuminated

Today's Extremes

State Highs State Lows

Community

WunderPhotos

Upload Photos

1,779,071 photos uploaded!

WunderBlogs® & News

Nearby

Air Quality

  Air Quality AQ Index Pollutant
Not available.

Snow Depth

Station Depth Elevation

Earthquake Activity

City Distance Mag. Time & Date
Minimum magnitude displayed is 2.5.

Coastal Water Temperatures

Place Temperature

Nearby Weather Stations